sensor_id;sensor_type;location;lat;lon;timestamp;P1;durP1;ratioP1;P2;durP2;ratioP2
75456;SDS011;64036;48.266;14.192;2023-08-17T00:00:10;11.60;;;6.90;;
75456;SDS011;64036;48.266;14.192;2023-08-17T00:02:42;10.70;;;7.20;;
75456;SDS011;64036;48.266;14.192;2023-08-17T00:05:08;8.00;;;6.50;;
75456;SDS011;64036;48.266;14.192;2023-08-17T00:07:35;10.20;;;7.10;;
75456;SDS011;64036;48.266;14.192;2023-08-17T00:10:02;14.40;;;7.40;;
75456;SDS011;64036;48.266;14.192;2023-08-17T00:12:28;8.30;;;7.40;;
75456;SDS011;64036;48.266;14.192;2023-08-17T00:14:54;8.90;;;7.40;;
75456;SDS011;64036;48.266;14.192;2023-08-17T00:17:20;9.50;;;7.10;;
75456;SDS011;64036;48.266;14.192;2023-08-17T00:19:47;9.00;;;7.60;;
75456;SDS011;64036;48.266;14.192;2023-08-17T00:22:13;12.00;;;7.80;;
75456;SDS011;64036;48.266;14.192;2023-08-17T00:24:39;8.80;;;7.00;;
75456;SDS011;64036;48.266;14.192;2023-08-17T00:27:07;11.20;;;7.90;;
75456;SDS011;64036;48.266;14.192;2023-08-17T00:29:32;8.60;;;7.30;;
75456;SDS011;64036;48.266;14.192;2023-08-17T00:32:00;10.00;;;7.10;;
75456;SDS011;64036;48.266;14.192;2023-08-17T00:34:27;8.70;;;6.90;;
75456;SDS011;64036;48.266;14.192;2023-08-17T00:36:52;10.40;;;7.70;;
75456;SDS011;64036;48.266;14.192;2023-08-17T00:39:18;8.10;;;6.90;;
75456;SDS011;64036;48.266;14.192;2023-08-17T00:41:45;9.10;;;7.70;;
75456;SDS011;64036;48.266;14.192;2023-08-17T00:44:11;10.60;;;7.50;;
75456;SDS011;64036;48.266;14.192;2023-08-17T00:46:38;10.40;;;7.60;;
75456;SDS011;64036;48.266;14.192;2023-08-17T00:49:05;9.50;;;7.30;;
75456;SDS011;64036;48.266;14.192;2023-08-17T00:51:31;10.70;;;7.50;;
75456;SDS011;64036;48.266;14.192;2023-08-17T00:53:59;9.50;;;7.10;;
75456;SDS011;64036;48.266;14.192;2023-08-17T00:56:27;8.60;;;6.70;;
75456;SDS011;64036;48.266;14.192;2023-08-17T00:58:53;8.30;;;6.10;;
75456;SDS011;64036;48.266;14.192;2023-08-17T01:01:20;11.90;;;7.50;;
75456;SDS011;64036;48.266;14.192;2023-08-17T01:03:45;8.60;;;7.50;;
75456;SDS011;64036;48.266;14.192;2023-08-17T01:06:11;8.90;;;7.30;;
75456;SDS011;64036;48.266;14.192;2023-08-17T01:08:37;9.80;;;6.90;;
75456;SDS011;64036;48.266;14.192;2023-08-17T01:14:12;8.40;;;6.70;;
75456;SDS011;64036;48.266;14.192;2023-08-17T01:19:44;8.60;;;6.00;;
75456;SDS011;64036;48.266;14.192;2023-08-17T01:22:13;7.90;;;5.80;;
75456;SDS011;64036;48.266;14.192;2023-08-17T01:24:40;8.90;;;6.50;;
75456;SDS011;64036;48.266;14.192;2023-08-17T01:27:05;8.30;;;6.60;;
75456;SDS011;64036;48.266;14.192;2023-08-17T01:29:31;9.50;;;6.70;;
75456;SDS011;64036;48.266;14.192;2023-08-17T01:32:07;8.70;;;7.10;;
75456;SDS011;64036;48.266;14.192;2023-08-17T01:34:40;10.80;;;7.30;;
75456;SDS011;64036;48.266;14.192;2023-08-17T01:37:11;10.60;;;8.00;;
75456;SDS011;64036;48.266;14.192;2023-08-17T01:39:39;9.70;;;7.60;;
75456;SDS011;64036;48.266;14.192;2023-08-17T01:42:10;9.40;;;7.50;;
75456;SDS011;64036;48.266;14.192;2023-08-17T01:44:38;10.40;;;7.70;;
75456;SDS011;64036;48.266;14.192;2023-08-17T01:47:04;8.70;;;7.70;;
75456;SDS011;64036;48.266;14.192;2023-08-17T01:49:30;11.10;;;7.90;;
75456;SDS011;64036;48.266;14.192;2023-08-17T01:51:56;9.90;;;8.20;;
75456;SDS011;64036;48.266;14.192;2023-08-17T01:54:22;10.90;;;8.10;;
75456;SDS011;64036;48.266;14.192;2023-08-17T01:56:49;10.10;;;8.40;;
75456;SDS011;64036;48.266;14.192;2023-08-17T01:59:14;10.10;;;8.10;;
75456;SDS011;64036;48.266;14.192;2023-08-17T02:01:40;10.90;;;8.10;;
75456;SDS011;64036;48.266;14.192;2023-08-17T02:04:06;9.80;;;8.30;;
75456;SDS011;64036;48.266;14.192;2023-08-17T02:06:32;9.30;;;8.30;;
75456;SDS011;64036;48.266;14.192;2023-08-17T02:08:58;10.00;;;8.10;;
75456;SDS011;64036;48.266;14.192;2023-08-17T02:11:24;12.30;;;7.80;;
75456;SDS011;64036;48.266;14.192;2023-08-17T02:13:49;12.00;;;8.80;;
75456;SDS011;64036;48.266;14.192;2023-08-17T02:16:15;11.50;;;7.70;;
75456;SDS011;64036;48.266;14.192;2023-08-17T02:18:41;9.50;;;7.90;;
75456;SDS011;64036;48.266;14.192;2023-08-17T02:21:06;9.80;;;8.30;;
75456;SDS011;64036;48.266;14.192;2023-08-17T02:23:32;10.30;;;7.80;;
75456;SDS011;64036;48.266;14.192;2023-08-17T02:25:57;11.10;;;7.60;;
75456;SDS011;64036;48.266;14.192;2023-08-17T02:28:23;9.80;;;8.30;;
75456;SDS011;64036;48.266;14.192;2023-08-17T02:30:54;10.10;;;8.70;;
75456;SDS011;64036;48.266;14.192;2023-08-17T02:33:23;9.80;;;7.70;;
75456;SDS011;64036;48.266;14.192;2023-08-17T02:35:50;11.70;;;8.50;;
75456;SDS011;64036;48.266;14.192;2023-08-17T02:38:16;11.60;;;8.50;;
75456;SDS011;64036;48.266;14.192;2023-08-17T02:40:42;9.40;;;8.20;;
75456;SDS011;64036;48.266;14.192;2023-08-17T02:43:08;12.00;;;8.90;;
75456;SDS011;64036;48.266;14.192;2023-08-17T02:45:34;10.20;;;8.50;;
75456;SDS011;64036;48.266;14.192;2023-08-17T02:48:00;9.50;;;8.50;;
75456;SDS011;64036;48.266;14.192;2023-08-17T02:50:26;11.90;;;8.90;;
75456;SDS011;64036;48.266;14.192;2023-08-17T02:52:51;11.80;;;8.90;;
75456;SDS011;64036;48.266;14.192;2023-08-17T02:55:17;13.50;;;8.60;;
75456;SDS011;64036;48.266;14.192;2023-08-17T02:57:43;11.50;;;8.10;;
75456;SDS011;64036;48.266;14.192;2023-08-17T03:00:09;9.00;;;6.40;;
75456;SDS011;64036;48.266;14.192;2023-08-17T03:02:35;11.60;;;8.30;;
75456;SDS011;64036;48.266;14.192;2023-08-17T03:05:01;8.10;;;6.30;;
75456;SDS011;64036;48.266;14.192;2023-08-17T03:07:28;9.70;;;8.00;;
75456;SDS011;64036;48.266;14.192;2023-08-17T03:09:54;11.90;;;8.90;;
75456;SDS011;64036;48.266;14.192;2023-08-17T03:12:19;10.40;;;8.40;;
75456;SDS011;64036;48.266;14.192;2023-08-17T03:14:46;9.20;;;7.90;;
75456;SDS011;64036;48.266;14.192;2023-08-17T03:17:11;10.00;;;8.10;;
75456;SDS011;64036;48.266;14.192;2023-08-17T03:19:37;10.10;;;7.70;;
75456;SDS011;64036;48.266;14.192;2023-08-17T03:22:03;9.70;;;7.90;;
75456;SDS011;64036;48.266;14.192;2023-08-17T03:24:28;9.80;;;8.40;;
75456;SDS011;64036;48.266;14.192;2023-08-17T03:26:54;14.30;;;8.80;;
75456;SDS011;64036;48.266;14.192;2023-08-17T03:29:20;10.00;;;8.50;;
75456;SDS011;64036;48.266;14.192;2023-08-17T03:31:45;12.20;;;8.80;;
75456;SDS011;64036;48.266;14.192;2023-08-17T03:34:11;11.20;;;7.50;;
75456;SDS011;64036;48.266;14.192;2023-08-17T03:36:37;12.50;;;8.70;;
75456;SDS011;64036;48.266;14.192;2023-08-17T03:39:03;10.20;;;8.20;;
75456;SDS011;64036;48.266;14.192;2023-08-17T03:41:28;9.60;;;8.30;;
75456;SDS011;64036;48.266;14.192;2023-08-17T03:43:55;11.00;;;8.00;;
75456;SDS011;64036;48.266;14.192;2023-08-17T03:46:21;11.00;;;8.50;;
75456;SDS011;64036;48.266;14.192;2023-08-17T03:48:46;13.30;;;8.40;;
75456;SDS011;64036;48.266;14.192;2023-08-17T03:51:12;10.30;;;8.30;;
75456;SDS011;64036;48.266;14.192;2023-08-17T03:53:37;9.90;;;8.60;;
75456;SDS011;64036;48.266;14.192;2023-08-17T03:56:03;14.40;;;8.50;;
75456;SDS011;64036;48.266;14.192;2023-08-17T03:58:29;10.50;;;8.10;;
75456;SDS011;64036;48.266;14.192;2023-08-17T04:01:00;9.60;;;8.00;;
75456;SDS011;64036;48.266;14.192;2023-08-17T04:03:26;9.80;;;7.80;;
75456;SDS011;64036;48.266;14.192;2023-08-17T04:05:52;13.70;;;7.80;;
75456;SDS011;64036;48.266;14.192;2023-08-17T04:08:18;8.50;;;7.40;;
75456;SDS011;64036;48.266;14.192;2023-08-17T04:10:43;9.70;;;8.00;;
75456;SDS011;64036;48.266;14.192;2023-08-17T04:13:09;9.30;;;7.70;;
75456;SDS011;64036;48.266;14.192;2023-08-17T04:15:35;11.80;;;8.00;;
75456;SDS011;64036;48.266;14.192;2023-08-17T04:18:00;11.50;;;8.70;;
75456;SDS011;64036;48.266;14.192;2023-08-17T04:20:26;9.80;;;8.60;;
75456;SDS011;64036;48.266;14.192;2023-08-17T04:22:52;11.20;;;7.80;;
75456;SDS011;64036;48.266;14.192;2023-08-17T04:25:18;9.50;;;7.00;;
75456;SDS011;64036;48.266;14.192;2023-08-17T04:27:44;10.40;;;7.90;;
75456;SDS011;64036;48.266;14.192;2023-08-17T04:30:10;9.00;;;6.80;;
75456;SDS011;64036;48.266;14.192;2023-08-17T04:32:36;12.20;;;7.30;;
75456;SDS011;64036;48.266;14.192;2023-08-17T04:35:02;9.30;;;7.00;;
75456;SDS011;64036;48.266;14.192;2023-08-17T04:37:27;10.40;;;7.20;;
75456;SDS011;64036;48.266;14.192;2023-08-17T04:39:53;7.90;;;7.00;;
75456;SDS011;64036;48.266;14.192;2023-08-17T04:42:19;8.50;;;7.60;;
75456;SDS011;64036;48.266;14.192;2023-08-17T04:44:47;10.80;;;7.30;;
75456;SDS011;64036;48.266;14.192;2023-08-17T04:47:12;10.40;;;7.20;;
75456;SDS011;64036;48.266;14.192;2023-08-17T04:49:39;9.80;;;7.20;;
75456;SDS011;64036;48.266;14.192;2023-08-17T04:52:04;9.50;;;7.50;;
75456;SDS011;64036;48.266;14.192;2023-08-17T04:54:30;10.20;;;7.50;;
75456;SDS011;64036;48.266;14.192;2023-08-17T04:56:55;8.30;;;7.40;;
75456;SDS011;64036;48.266;14.192;2023-08-17T04:59:21;10.90;;;7.10;;
75456;SDS011;64036;48.266;14.192;2023-08-17T05:01:47;8.30;;;6.60;;
75456;SDS011;64036;48.266;14.192;2023-08-17T05:04:12;8.00;;;6.60;;
75456;SDS011;64036;48.266;14.192;2023-08-17T05:06:38;6.60;;;5.90;;
75456;SDS011;64036;48.266;14.192;2023-08-17T05:09:04;6.90;;;5.70;;
75456;SDS011;64036;48.266;14.192;2023-08-17T05:11:31;7.60;;;5.70;;
75456;SDS011;64036;48.266;14.192;2023-08-17T05:13:56;8.60;;;5.90;;
75456;SDS011;64036;48.266;14.192;2023-08-17T05:16:22;6.80;;;5.50;;
75456;SDS011;64036;48.266;14.192;2023-08-17T05:18:48;6.80;;;5.40;;
75456;SDS011;64036;48.266;14.192;2023-08-17T05:21:13;7.60;;;5.70;;
75456;SDS011;64036;48.266;14.192;2023-08-17T05:23:39;7.90;;;5.60;;
75456;SDS011;64036;48.266;14.192;2023-08-17T05:26:04;7.20;;;5.10;;
75456;SDS011;64036;48.266;14.192;2023-08-17T05:28:30;7.20;;;5.00;;
75456;SDS011;64036;48.266;14.192;2023-08-17T05:30:56;5.90;;;4.60;;
75456;SDS011;64036;48.266;14.192;2023-08-17T05:33:22;7.30;;;4.50;;
75456;SDS011;64036;48.266;14.192;2023-08-17T05:35:53;5.40;;;4.10;;
75456;SDS011;64036;48.266;14.192;2023-08-17T05:38:19;6.70;;;4.60;;
75456;SDS011;64036;48.266;14.192;2023-08-17T05:40:45;6.80;;;4.20;;
75456;SDS011;64036;48.266;14.192;2023-08-17T05:43:10;6.60;;;4.10;;
75456;SDS011;64036;48.266;14.192;2023-08-17T05:45:36;4.70;;;3.90;;
75456;SDS011;64036;48.266;14.192;2023-08-17T05:48:02;5.20;;;4.00;;
75456;SDS011;64036;48.266;14.192;2023-08-17T05:50:28;6.40;;;3.90;;
75456;SDS011;64036;48.266;14.192;2023-08-17T05:52:55;5.80;;;3.80;;
75456;SDS011;64036;48.266;14.192;2023-08-17T05:55:20;6.70;;;3.90;;
75456;SDS011;64036;48.266;14.192;2023-08-17T05:57:46;5.00;;;4.00;;
75456;SDS011;64036;48.266;14.192;2023-08-17T06:00:12;6.60;;;3.70;;
75456;SDS011;64036;48.266;14.192;2023-08-17T06:02:39;7.70;;;4.00;;
75456;SDS011;64036;48.266;14.192;2023-08-17T06:05:05;5.00;;;3.50;;
75456;SDS011;64036;48.266;14.192;2023-08-17T06:07:31;5.80;;;3.20;;
75456;SDS011;64036;48.266;14.192;2023-08-17T06:09:57;4.20;;;3.10;;
75456;SDS011;64036;48.266;14.192;2023-08-17T06:12:22;5.50;;;3.50;;
75456;SDS011;64036;48.266;14.192;2023-08-17T06:14:48;6.30;;;3.50;;
75456;SDS011;64036;48.266;14.192;2023-08-17T06:17:13;4.80;;;3.20;;
75456;SDS011;64036;48.266;14.192;2023-08-17T06:19:39;4.30;;;3.10;;
75456;SDS011;64036;48.266;14.192;2023-08-17T06:22:06;4.80;;;2.90;;
75456;SDS011;64036;48.266;14.192;2023-08-17T06:24:33;5.50;;;3.20;;
75456;SDS011;64036;48.266;14.192;2023-08-17T06:26:59;4.40;;;2.90;;
75456;SDS011;64036;48.266;14.192;2023-08-17T06:29:24;8.80;;;3.90;;
75456;SDS011;64036;48.266;14.192;2023-08-17T06:31:50;5.20;;;3.20;;
75456;SDS011;64036;48.266;14.192;2023-08-17T06:34:15;4.90;;;2.70;;
75456;SDS011;64036;48.266;14.192;2023-08-17T06:36:41;4.50;;;2.70;;
75456;SDS011;64036;48.266;14.192;2023-08-17T06:39:07;4.00;;;2.50;;
75456;SDS011;64036;48.266;14.192;2023-08-17T06:41:34;4.30;;;2.90;;
75456;SDS011;64036;48.266;14.192;2023-08-17T06:43:59;5.10;;;2.60;;
75456;SDS011;64036;48.266;14.192;2023-08-17T06:46:25;3.50;;;2.60;;
75456;SDS011;64036;48.266;14.192;2023-08-17T06:48:50;4.80;;;2.50;;
75456;SDS011;64036;48.266;14.192;2023-08-17T06:51:16;4.20;;;2.60;;
75456;SDS011;64036;48.266;14.192;2023-08-17T06:53:42;3.40;;;2.20;;
75456;SDS011;64036;48.266;14.192;2023-08-17T06:56:09;3.00;;;2.20;;
75456;SDS011;64036;48.266;14.192;2023-08-17T06:58:35;3.50;;;2.40;;
75456;SDS011;64036;48.266;14.192;2023-08-17T07:01:00;4.60;;;2.50;;
75456;SDS011;64036;48.266;14.192;2023-08-17T07:03:26;3.60;;;2.20;;
75456;SDS011;64036;48.266;14.192;2023-08-17T07:05:52;4.10;;;2.40;;
75456;SDS011;64036;48.266;14.192;2023-08-17T07:08:17;4.00;;;2.40;;
75456;SDS011;64036;48.266;14.192;2023-08-17T07:10:43;4.80;;;2.60;;
75456;SDS011;64036;48.266;14.192;2023-08-17T07:13:09;2.80;;;2.30;;
75456;SDS011;64036;48.266;14.192;2023-08-17T07:15:35;3.90;;;2.30;;
75456;SDS011;64036;48.266;14.192;2023-08-17T07:18:01;4.80;;;2.60;;
75456;SDS011;64036;48.266;14.192;2023-08-17T07:20:27;4.60;;;2.60;;
75456;SDS011;64036;48.266;14.192;2023-08-17T07:22:52;4.30;;;2.50;;
75456;SDS011;64036;48.266;14.192;2023-08-17T07:25:18;5.70;;;2.50;;
75456;SDS011;64036;48.266;14.192;2023-08-17T07:27:44;7.00;;;2.60;;
75456;SDS011;64036;48.266;14.192;2023-08-17T07:30:10;4.60;;;2.60;;
75456;SDS011;64036;48.266;14.192;2023-08-17T07:32:36;7.40;;;3.00;;
75456;SDS011;64036;48.266;14.192;2023-08-17T07:35:02;3.10;;;2.20;;
75456;SDS011;64036;48.266;14.192;2023-08-17T07:37:28;5.20;;;2.50;;
75456;SDS011;64036;48.266;14.192;2023-08-17T07:39:58;5.40;;;2.50;;
75456;SDS011;64036;48.266;14.192;2023-08-17T07:42:25;4.90;;;2.60;;
75456;SDS011;64036;48.266;14.192;2023-08-17T07:44:50;4.20;;;2.50;;
75456;SDS011;64036;48.266;14.192;2023-08-17T07:47:16;4.20;;;2.20;;
75456;SDS011;64036;48.266;14.192;2023-08-17T07:49:42;4.40;;;2.80;;
75456;SDS011;64036;48.266;14.192;2023-08-17T07:52:07;5.50;;;2.70;;
75456;SDS011;64036;48.266;14.192;2023-08-17T07:54:33;6.00;;;2.50;;
75456;SDS011;64036;48.266;14.192;2023-08-17T07:56:59;4.80;;;2.50;;
75456;SDS011;64036;48.266;14.192;2023-08-17T07:59:25;4.90;;;2.70;;
75456;SDS011;64036;48.266;14.192;2023-08-17T08:01:50;5.10;;;2.70;;
75456;SDS011;64036;48.266;14.192;2023-08-17T08:04:16;6.80;;;2.50;;
75456;SDS011;64036;48.266;14.192;2023-08-17T08:06:42;4.90;;;2.70;;
75456;SDS011;64036;48.266;14.192;2023-08-17T08:09:08;5.70;;;2.60;;
75456;SDS011;64036;48.266;14.192;2023-08-17T08:11:33;3.80;;;2.40;;
75456;SDS011;64036;48.266;14.192;2023-08-17T08:13:59;4.30;;;2.20;;
75456;SDS011;64036;48.266;14.192;2023-08-17T08:16:25;3.80;;;2.50;;
75456;SDS011;64036;48.266;14.192;2023-08-17T08:18:51;4.90;;;2.70;;
75456;SDS011;64036;48.266;14.192;2023-08-17T08:21:16;6.70;;;2.80;;
75456;SDS011;64036;48.266;14.192;2023-08-17T08:23:42;4.20;;;2.40;;
75456;SDS011;64036;48.266;14.192;2023-08-17T08:26:08;5.10;;;2.80;;
75456;SDS011;64036;48.266;14.192;2023-08-17T08:28:33;5.70;;;3.10;;
75456;SDS011;64036;48.266;14.192;2023-08-17T08:31:03;6.60;;;2.60;;
75456;SDS011;64036;48.266;14.192;2023-08-17T08:33:29;6.00;;;2.50;;
75456;SDS011;64036;48.266;14.192;2023-08-17T08:35:55;5.90;;;2.60;;
75456;SDS011;64036;48.266;14.192;2023-08-17T08:38:21;6.70;;;2.80;;
75456;SDS011;64036;48.266;14.192;2023-08-17T08:40:47;4.60;;;2.50;;
75456;SDS011;64036;48.266;14.192;2023-08-17T08:43:14;5.70;;;2.70;;
75456;SDS011;64036;48.266;14.192;2023-08-17T08:45:42;6.00;;;3.10;;
75456;SDS011;64036;48.266;14.192;2023-08-17T08:48:11;5.00;;;2.40;;
75456;SDS011;64036;48.266;14.192;2023-08-17T08:50:39;4.90;;;2.60;;
75456;SDS011;64036;48.266;14.192;2023-08-17T08:53:12;7.00;;;2.80;;
75456;SDS011;64036;48.266;14.192;2023-08-17T08:55:47;3.50;;;2.50;;
75456;SDS011;64036;48.266;14.192;2023-08-17T08:58:18;7.00;;;3.30;;
75456;SDS011;64036;48.266;14.192;2023-08-17T09:00:47;5.90;;;3.20;;
75456;SDS011;64036;48.266;14.192;2023-08-17T09:03:15;5.70;;;2.90;;
75456;SDS011;64036;48.266;14.192;2023-08-17T09:05:47;5.20;;;2.90;;
75456;SDS011;64036;48.266;14.192;2023-08-17T09:08:15;7.30;;;3.30;;
75456;SDS011;64036;48.266;14.192;2023-08-17T09:10:41;7.00;;;3.20;;
75456;SDS011;64036;48.266;14.192;2023-08-17T09:13:07;5.60;;;2.50;;
75456;SDS011;64036;48.266;14.192;2023-08-17T09:15:34;3.60;;;2.50;;
75456;SDS011;64036;48.266;14.192;2023-08-17T09:18:00;5.30;;;3.00;;
75456;SDS011;64036;48.266;14.192;2023-08-17T09:20:45;4.50;;;2.90;;
75456;SDS011;64036;48.266;14.192;2023-08-17T09:23:14;4.50;;;2.80;;
75456;SDS011;64036;48.266;14.192;2023-08-17T09:25:42;6.80;;;3.10;;
75456;SDS011;64036;48.266;14.192;2023-08-17T09:28:10;4.40;;;2.90;;
75456;SDS011;64036;48.266;14.192;2023-08-17T09:30:51;4.90;;;3.10;;
75456;SDS011;64036;48.266;14.192;2023-08-17T09:33:32;5.00;;;3.00;;
75456;SDS011;64036;48.266;14.192;2023-08-17T09:35:59;4.00;;;2.80;;
75456;SDS011;64036;48.266;14.192;2023-08-17T09:38:26;4.70;;;2.90;;
75456;SDS011;64036;48.266;14.192;2023-08-17T09:40:52;5.10;;;3.10;;
75456;SDS011;64036;48.266;14.192;2023-08-17T09:43:19;6.40;;;3.50;;
75456;SDS011;64036;48.266;14.192;2023-08-17T09:45:48;6.40;;;3.40;;
75456;SDS011;64036;48.266;14.192;2023-08-17T09:48:18;5.90;;;3.10;;
75456;SDS011;64036;48.266;14.192;2023-08-17T09:50:46;5.90;;;3.40;;
75456;SDS011;64036;48.266;14.192;2023-08-17T09:53:16;5.30;;;3.20;;
75456;SDS011;64036;48.266;14.192;2023-08-17T09:55:43;5.40;;;3.70;;
75456;SDS011;64036;48.266;14.192;2023-08-17T09:58:14;5.50;;;3.40;;
75456;SDS011;64036;48.266;14.192;2023-08-17T10:00:47;6.60;;;4.10;;
75456;SDS011;64036;48.266;14.192;2023-08-17T10:03:15;5.40;;;3.50;;
75456;SDS011;64036;48.266;14.192;2023-08-17T10:05:43;5.30;;;3.50;;
75456;SDS011;64036;48.266;14.192;2023-08-17T10:08:11;6.00;;;4.00;;
75456;SDS011;64036;48.266;14.192;2023-08-17T10:10:46;7.70;;;4.30;;
75456;SDS011;64036;48.266;14.192;2023-08-17T10:13:22;5.40;;;3.80;;
75456;SDS011;64036;48.266;14.192;2023-08-17T10:22:14;5.80;;;4.20;;
75456;SDS011;64036;48.266;14.192;2023-08-17T10:24:42;6.30;;;4.00;;
75456;SDS011;64036;48.266;14.192;2023-08-17T10:27:09;7.40;;;4.70;;
75456;SDS011;64036;48.266;14.192;2023-08-17T10:29:38;6.60;;;4.30;;
75456;SDS011;64036;48.266;14.192;2023-08-17T10:32:05;5.40;;;3.80;;
75456;SDS011;64036;48.266;14.192;2023-08-17T10:34:34;8.40;;;3.90;;
75456;SDS011;64036;48.266;14.192;2023-08-17T10:37:00;5.60;;;4.10;;
75456;SDS011;64036;48.266;14.192;2023-08-17T10:39:30;6.70;;;4.10;;
75456;SDS011;64036;48.266;14.192;2023-08-17T10:41:57;6.50;;;3.90;;
75456;SDS011;64036;48.266;14.192;2023-08-17T10:44:43;7.10;;;4.10;;
75456;SDS011;64036;48.266;14.192;2023-08-17T10:47:26;8.20;;;4.30;;
75456;SDS011;64036;48.266;14.192;2023-08-17T10:52:35;8.80;;;4.30;;
75456;SDS011;64036;48.266;14.192;2023-08-17T10:55:07;5.50;;;3.80;;
75456;SDS011;64036;48.266;14.192;2023-08-17T10:57:38;7.60;;;4.20;;
75456;SDS011;64036;48.266;14.192;2023-08-17T11:02:43;5.40;;;3.70;;
75456;SDS011;64036;48.266;14.192;2023-08-17T11:05:10;6.40;;;4.20;;
75456;SDS011;64036;48.266;14.192;2023-08-17T11:07:43;7.60;;;3.80;;
75456;SDS011;64036;48.266;14.192;2023-08-17T11:12:38;6.10;;;4.20;;
75456;SDS011;64036;48.266;14.192;2023-08-17T11:15:06;5.20;;;3.90;;
75456;SDS011;64036;48.266;14.192;2023-08-17T11:17:32;7.60;;;4.10;;
75456;SDS011;64036;48.266;14.192;2023-08-17T11:19:58;6.80;;;4.60;;
75456;SDS011;64036;48.266;14.192;2023-08-17T11:22:24;7.50;;;4.70;;
75456;SDS011;64036;48.266;14.192;2023-08-17T11:24:49;6.20;;;3.90;;
75456;SDS011;64036;48.266;14.192;2023-08-17T11:27:15;6.30;;;5.30;;
75456;SDS011;64036;48.266;14.192;2023-08-17T11:29:41;7.10;;;4.50;;
75456;SDS011;64036;48.266;14.192;2023-08-17T11:32:08;6.50;;;4.50;;
75456;SDS011;64036;48.266;14.192;2023-08-17T11:34:35;5.40;;;4.10;;
75456;SDS011;64036;48.266;14.192;2023-08-17T11:37:01;5.70;;;4.30;;
75456;SDS011;64036;48.266;14.192;2023-08-17T11:39:27;6.20;;;4.70;;
75456;SDS011;64036;48.266;14.192;2023-08-17T11:41:52;6.70;;;4.00;;
75456;SDS011;64036;48.266;14.192;2023-08-17T11:44:18;5.30;;;4.10;;
75456;SDS011;64036;48.266;14.192;2023-08-17T11:46:47;7.20;;;4.00;;
75456;SDS011;64036;48.266;14.192;2023-08-17T11:49:12;7.20;;;4.30;;
75456;SDS011;64036;48.266;14.192;2023-08-17T11:51:38;5.70;;;4.10;;
75456;SDS011;64036;48.266;14.192;2023-08-17T11:54:05;5.90;;;4.00;;
75456;SDS011;64036;48.266;14.192;2023-08-17T11:56:33;5.90;;;4.00;;
75456;SDS011;64036;48.266;14.192;2023-08-17T11:59:08;5.30;;;4.10;;
75456;SDS011;64036;48.266;14.192;2023-08-17T12:01:36;8.10;;;4.50;;
75456;SDS011;64036;48.266;14.192;2023-08-17T12:04:06;6.70;;;4.30;;
75456;SDS011;64036;48.266;14.192;2023-08-17T12:06:32;5.00;;;3.70;;
75456;SDS011;64036;48.266;14.192;2023-08-17T12:08:58;7.70;;;3.90;;
75456;SDS011;64036;48.266;14.192;2023-08-17T12:11:24;6.40;;;4.30;;
75456;SDS011;64036;48.266;14.192;2023-08-17T12:13:51;7.60;;;4.40;;
75456;SDS011;64036;48.266;14.192;2023-08-17T12:16:19;6.00;;;4.50;;
75456;SDS011;64036;48.266;14.192;2023-08-17T12:18:52;6.80;;;4.10;;
75456;SDS011;64036;48.266;14.192;2023-08-17T12:21:22;7.10;;;4.50;;
75456;SDS011;64036;48.266;14.192;2023-08-17T12:23:48;6.10;;;4.00;;
75456;SDS011;64036;48.266;14.192;2023-08-17T12:26:21;5.70;;;4.00;;
75456;SDS011;64036;48.266;14.192;2023-08-17T12:28:47;5.00;;;3.80;;
75456;SDS011;64036;48.266;14.192;2023-08-17T12:31:12;5.20;;;4.00;;
75456;SDS011;64036;48.266;14.192;2023-08-17T12:33:38;6.00;;;4.40;;
75456;SDS011;64036;48.266;14.192;2023-08-17T12:36:04;5.60;;;4.10;;
75456;SDS011;64036;48.266;14.192;2023-08-17T12:38:29;6.50;;;4.10;;
75456;SDS011;64036;48.266;14.192;2023-08-17T12:40:55;6.00;;;3.90;;
75456;SDS011;64036;48.266;14.192;2023-08-17T12:43:21;6.80;;;4.20;;
75456;SDS011;64036;48.266;14.192;2023-08-17T12:45:47;5.40;;;3.90;;
75456;SDS011;64036;48.266;14.192;2023-08-17T12:48:12;5.90;;;3.70;;
75456;SDS011;64036;48.266;14.192;2023-08-17T12:50:38;6.20;;;4.30;;
75456;SDS011;64036;48.266;14.192;2023-08-17T12:53:04;5.50;;;3.90;;
75456;SDS011;64036;48.266;14.192;2023-08-17T12:55:29;6.00;;;3.80;;
75456;SDS011;64036;48.266;14.192;2023-08-17T12:57:55;9.00;;;4.20;;
75456;SDS011;64036;48.266;14.192;2023-08-17T13:00:21;7.20;;;3.90;;
75456;SDS011;64036;48.266;14.192;2023-08-17T13:02:47;5.90;;;3.50;;
75456;SDS011;64036;48.266;14.192;2023-08-17T13:05:16;5.50;;;3.80;;
75456;SDS011;64036;48.266;14.192;2023-08-17T13:07:42;5.40;;;3.70;;
75456;SDS011;64036;48.266;14.192;2023-08-17T13:10:07;4.90;;;3.70;;
75456;SDS011;64036;48.266;14.192;2023-08-17T13:12:33;4.60;;;3.50;;
75456;SDS011;64036;48.266;14.192;2023-08-17T13:14:58;6.30;;;4.10;;
75456;SDS011;64036;48.266;14.192;2023-08-17T13:17:24;5.70;;;3.80;;
75456;SDS011;64036;48.266;14.192;2023-08-17T13:19:50;4.60;;;3.50;;
75456;SDS011;64036;48.266;14.192;2023-08-17T13:22:15;6.00;;;3.90;;
75456;SDS011;64036;48.266;14.192;2023-08-17T13:24:41;5.10;;;3.80;;
75456;SDS011;64036;48.266;14.192;2023-08-17T13:27:07;6.50;;;3.50;;
75456;SDS011;64036;48.266;14.192;2023-08-17T13:29:33;5.30;;;3.80;;
75456;SDS011;64036;48.266;14.192;2023-08-17T13:31:58;7.10;;;3.60;;
75456;SDS011;64036;48.266;14.192;2023-08-17T13:34:24;6.90;;;4.10;;
75456;SDS011;64036;48.266;14.192;2023-08-17T13:36:49;6.30;;;3.50;;
75456;SDS011;64036;48.266;14.192;2023-08-17T13:39:15;7.40;;;3.50;;
75456;SDS011;64036;48.266;14.192;2023-08-17T13:41:41;4.40;;;3.30;;
75456;SDS011;64036;48.266;14.192;2023-08-17T13:44:08;5.10;;;3.10;;
75456;SDS011;64036;48.266;14.192;2023-08-17T13:46:33;4.70;;;3.30;;
75456;SDS011;64036;48.266;14.192;2023-08-17T13:48:59;4.70;;;3.20;;
75456;SDS011;64036;48.266;14.192;2023-08-17T13:51:25;6.20;;;4.00;;
75456;SDS011;64036;48.266;14.192;2023-08-17T13:53:50;5.50;;;4.10;;
75456;SDS011;64036;48.266;14.192;2023-08-17T13:56:16;5.60;;;4.00;;
75456;SDS011;64036;48.266;14.192;2023-08-17T13:58:42;4.80;;;3.40;;
75456;SDS011;64036;48.266;14.192;2023-08-17T14:01:07;5.00;;;3.70;;
75456;SDS011;64036;48.266;14.192;2023-08-17T14:03:33;4.90;;;3.60;;
75456;SDS011;64036;48.266;14.192;2023-08-17T14:05:59;7.50;;;3.80;;
75456;SDS011;64036;48.266;14.192;2023-08-17T14:08:24;5.40;;;3.40;;
75456;SDS011;64036;48.266;14.192;2023-08-17T14:10:50;5.50;;;3.40;;
75456;SDS011;64036;48.266;14.192;2023-08-17T14:13:15;6.80;;;3.60;;
75456;SDS011;64036;48.266;14.192;2023-08-17T14:15:41;6.10;;;3.50;;
75456;SDS011;64036;48.266;14.192;2023-08-17T14:18:06;7.40;;;3.90;;
75456;SDS011;64036;48.266;14.192;2023-08-17T14:20:32;5.00;;;3.50;;
75456;SDS011;64036;48.266;14.192;2023-08-17T14:22:58;5.10;;;3.70;;
75456;SDS011;64036;48.266;14.192;2023-08-17T14:25:23;5.20;;;3.40;;
75456;SDS011;64036;48.266;14.192;2023-08-17T14:27:49;5.00;;;3.60;;
75456;SDS011;64036;48.266;14.192;2023-08-17T14:30:14;6.90;;;3.60;;
75456;SDS011;64036;48.266;14.192;2023-08-17T14:32:40;4.40;;;3.30;;
75456;SDS011;64036;48.266;14.192;2023-08-17T14:35:06;5.70;;;3.70;;
75456;SDS011;64036;48.266;14.192;2023-08-17T14:37:32;5.30;;;3.60;;
75456;SDS011;64036;48.266;14.192;2023-08-17T14:39:58;5.50;;;3.50;;
75456;SDS011;64036;48.266;14.192;2023-08-17T14:42:23;7.80;;;4.00;;
75456;SDS011;64036;48.266;14.192;2023-08-17T14:44:49;6.50;;;3.80;;
75456;SDS011;64036;48.266;14.192;2023-08-17T14:47:14;7.90;;;3.50;;
75456;SDS011;64036;48.266;14.192;2023-08-17T14:49:40;5.90;;;3.60;;